Prospect, Indiana
Current Conditions -  °F | °C
As of 3:55 PM on Tuesday 21 Oct 2014 (Local Time) from KDCY Reporting Station
Broken Clouds Broken Clouds  
Wind Chill: 60°   Ceiling: 4900
Heat Index: 60°   Visibility: 10mi
Dew Point: 42°   Wind: 14mph
Humidity: 52%   Direction: 350°N
Pressure: 30.1"   Gusts: 21mph
Location:  38.6165°N, 86.6265°W
Report Text: KDCY 211955Z AUTO 35012G18KT 10SM BKN049 15/06 A3010 RMK AO2 T01530056
Loading
Personal Weather Stations






























Interactive Weather Map
Tropical Storm Tracking
New forecast layout! Learn more

10-Day Weather Forecast

Advertisements
Track Severe Weather on mobile